createdAt,value
2022-08-21T00:00:02.283Z,67.92
2022-08-21T00:01:17.466Z,68.38
2022-08-21T00:02:23.453Z,68.26
2022-08-21T00:03:25.208Z,68.36
2022-08-21T00:04:29.453Z,68.33
2022-08-21T00:05:33.334Z,68.37
2022-08-21T00:06:35.140Z,68.16
2022-08-21T00:07:36.689Z,68.09
2022-08-21T00:08:38.353Z,68.39
2022-08-21T00:09:40.445Z,68.38
2022-08-21T00:10:43.129Z,68.27
2022-08-21T00:11:44.663Z,68.07
2022-08-21T00:12:46.679Z,68.47
2022-08-21T00:13:48.439Z,68.29
2022-08-21T00:14:49.962Z,68.27
2022-08-21T00:15:52.315Z,67.89
2022-08-21T00:16:53.862Z,67.92
2022-08-21T00:18:00.535Z,67.99
2022-08-21T00:19:02.699Z,67.44
2022-08-21T00:20:09.656Z,67.88
2022-08-21T00:21:13.603Z,67.63
2022-08-21T00:22:15.217Z,67.28
2022-08-21T00:23:17.409Z,68.12
2022-08-21T00:24:20.655Z,68.31
2022-08-21T00:25:25.904Z,68.46
2022-08-21T00:26:28.063Z,68.27
2022-08-21T00:27:29.803Z,68.34
2022-08-21T00:28:31.615Z,68.58
2022-08-21T00:29:33.205Z,68.04
2022-08-21T00:30:35.042Z,67.93
2022-08-21T00:31:37.555Z,67.89
2022-08-21T00:32:40.177Z,67.15
2022-08-21T00:33:42.378Z,67.64
2022-08-21T00:34:44.051Z,68.37
2022-08-21T00:35:45.593Z,68.62
2022-08-21T00:36:47.197Z,68.65
2022-08-21T00:37:48.767Z,68.80
2022-08-21T00:38:50.287Z,69.26
2022-08-21T00:39:52.193Z,69.12
2022-08-21T00:40:57.552Z,69.47
2022-08-21T00:42:01.895Z,69.39
2022-08-21T00:43:05.391Z,69.73
2022-08-21T00:44:10.181Z,69.47
2022-08-21T00:45:12.740Z,69.61
2022-08-21T00:46:14.434Z,69.76
2022-08-21T00:47:16.081Z,70.04
2022-08-21T00:48:18.285Z,70.01
2022-08-21T00:49:19.869Z,70.14
2022-08-21T00:50:22.449Z,70.02
2022-08-21T00:51:29.395Z,69.86
2022-08-21T00:52:34.820Z,70.05
2022-08-21T00:53:44.778Z,69.99
2022-08-21T00:54:57.805Z,70.33
2022-08-21T00:56:00.651Z,70.33
2022-08-21T00:57:14.998Z,70.10
2022-08-21T00:58:17.886Z,70.27
2022-08-21T00:59:22.120Z,70.35
2022-08-21T01:00:28.964Z,70.31
2022-08-21T01:01:30.581Z,70.64
2022-08-21T01:02:32.251Z,70.57
2022-08-21T01:03:34.758Z,70.67
2022-08-21T01:04:37.036Z,70.49
2022-08-21T01:05:39.597Z,70.54
2022-08-21T01:06:41.091Z,70.78
2022-08-21T01:07:43.048Z,70.57
2022-08-21T01:08:46.881Z,70.82
2022-08-21T01:09:49.667Z,71.50
2022-08-21T01:10:54.617Z,71.38
2022-08-21T01:12:00.617Z,71.78
2022-08-21T01:13:03.029Z,71.65
2022-08-21T01:14:04.622Z,71.92
2022-08-21T01:15:07.765Z,72.20
2022-08-21T01:16:10.465Z,71.90
2022-08-21T01:17:15.191Z,71.84
2022-08-21T01:18:17.697Z,71.88
2022-08-21T01:19:21.421Z,71.99
2022-08-21T01:20:32.289Z,71.56
2022-08-21T01:21:34.610Z,71.78
2022-08-21T01:22:36.474Z,71.95
2022-08-21T01:23:41.168Z,72.18
2022-08-21T01:24:42.725Z,72.57
2022-08-21T01:25:44.256Z,72.68
2022-08-21T01:26:46.597Z,72.81
2022-08-21T01:27:48.538Z,72.32
2022-08-21T01:28:59.580Z,72.87
2022-08-21T01:30:11.342Z,72.47
2022-08-21T01:31:15.989Z,72.46
2022-08-21T01:32:20.724Z,72.55
2022-08-21T01:33:24.938Z,72.54
2022-08-21T01:34:26.441Z,72.24
2022-08-21T01:35:28.196Z,72.71
2022-08-21T01:36:30.171Z,72.51
2022-08-21T01:37:31.730Z,71.95
2022-08-21T01:38:34.252Z,72.02
2022-08-21T01:39:36.479Z,71.74
2022-08-21T01:40:38.031Z,71.93
2022-08-21T01:41:39.587Z,71.68
2022-08-21T01:42:41.218Z,71.60
2022-08-21T01:43:44.276Z,71.49
2022-08-21T01:44:45.764Z,71.92
2022-08-21T01:45:47.272Z,71.99
2022-08-21T01:46:48.922Z,72.50
2022-08-21T01:47:50.447Z,72.83
2022-08-21T01:48:51.957Z,73.03
2022-08-21T01:49:53.885Z,72.78
2022-08-21T01:50:56.745Z,73.26
2022-08-21T01:51:58.710Z,73.48
2022-08-21T01:53:00.267Z,73.46
2022-08-21T01:54:01.821Z,73.50
2022-08-21T01:55:05.449Z,73.40
2022-08-21T01:56:11.899Z,73.41
2022-08-21T01:57:15.428Z,73.38
2022-08-21T01:58:17.089Z,73.48
2022-08-21T01:59:19.759Z,73.63
2022-08-21T02:00:23.590Z,73.63
2022-08-21T02:01:25.256Z,73.72
2022-08-21T02:02:26.969Z,73.88
2022-08-21T02:03:35.651Z,73.92
2022-08-21T02:04:38.007Z,74.01
2022-08-21T02:05:39.559Z,73.90
2022-08-21T02:06:41.311Z,74.30
2022-08-21T02:07:51.742Z,74.11
2022-08-21T02:08:53.806Z,74.26
2022-08-21T02:09:55.344Z,74.38
2022-08-21T02:10:57.663Z,74.60
2022-08-21T02:11:59.142Z,74.61
2022-08-21T02:13:00.993Z,74.69
2022-08-21T02:14:02.564Z,74.65
2022-08-21T02:15:08.678Z,74.89
2022-08-21T02:16:10.710Z,74.86
2022-08-21T02:17:12.300Z,74.88
2022-08-21T02:18:13.921Z,75.07
2022-08-21T02:19:16.819Z,75.30
2022-08-21T02:20:26.777Z,75.54
2022-08-21T02:21:28.270Z,75.59
2022-08-21T02:22:29.789Z,75.85
2022-08-21T02:23:31.444Z,75.80
2022-08-21T02:24:32.930Z,75.84
2022-08-21T02:25:35.315Z,75.84
2022-08-21T02:26:36.946Z,75.99
2022-08-21T02:27:44.342Z,76.25
2022-08-21T02:28:45.841Z,76.35
2022-08-21T02:29:47.386Z,76.46
2022-08-21T02:30:49.423Z,76.79
2022-08-21T02:31:51.105Z,76.75
2022-08-21T02:32:52.766Z,76.65
2022-08-21T02:33:54.275Z,76.95
2022-08-21T02:34:55.901Z,76.89
2022-08-21T02:35:57.901Z,76.65
2022-08-21T02:36:59.964Z,76.40
2022-08-21T02:38:08.500Z,76.60
2022-08-21T02:39:14.705Z,76.49
2022-08-21T02:40:17.552Z,76.90
2022-08-21T02:41:21.352Z,77.03
2022-08-21T02:42:22.867Z,76.89
2022-08-21T02:43:26.610Z,76.57
2022-08-21T02:44:30.142Z,76.54
2022-08-21T02:45:38.265Z,76.55
2022-08-21T02:46:39.798Z,76.32
2022-08-21T02:47:48.833Z,75.92
2022-08-21T02:48:50.371Z,76.18
2022-08-21T02:49:53.331Z,76.33
2022-08-21T02:51:02.415Z,76.24
2022-08-21T02:52:04.113Z,76.11
2022-08-21T02:53:07.285Z,76.26
2022-08-21T02:54:08.782Z,76.64
2022-08-21T02:55:10.279Z,76.47
2022-08-21T02:56:15.545Z,75.81
2022-08-21T02:57:17.271Z,75.69
2022-08-21T02:58:23.103Z,75.51
2022-08-21T02:59:24.695Z,75.54
2022-08-21T03:00:30.119Z,75.62
2022-08-21T03:01:31.680Z,75.40
2022-08-21T03:02:33.219Z,75.57
2022-08-21T03:03:34.878Z,75.33
2022-08-21T03:04:38.097Z,75.14
2022-08-21T03:05:39.755Z,74.96
2022-08-21T03:06:41.236Z,74.41
2022-08-21T03:07:44.965Z,74.10
2022-08-21T03:08:46.607Z,74.88
2022-08-21T03:09:55.377Z,75.22
2022-08-21T03:10:57.608Z,74.82
2022-08-21T03:11:59.274Z,75.05
2022-08-21T03:13:00.814Z,75.05
2022-08-21T03:14:02.346Z,75.38
2022-08-21T03:15:10.457Z,75.80
2022-08-21T03:16:12.160Z,75.48
2022-08-21T03:17:13.702Z,75.78
2022-08-21T03:18:15.899Z,76.00
2022-08-21T03:19:17.350Z,75.92
2022-08-21T03:20:22.185Z,75.78
2022-08-21T03:21:23.761Z,75.61
2022-08-21T03:22:25.815Z,75.84
2022-08-21T03:23:32.551Z,75.47
2022-08-21T03:24:34.487Z,75.44
2022-08-21T03:25:40.291Z,74.87
2022-08-21T03:26:42.453Z,75.61
2022-08-21T03:27:44.691Z,75.53
2022-08-21T03:28:46.362Z,76.20
2022-08-21T03:29:47.886Z,75.41
2022-08-21T03:30:52.293Z,75.93
2022-08-21T03:31:53.861Z,75.65
2022-08-21T03:32:55.351Z,75.76
2022-08-21T03:33:58.925Z,75.89
2022-08-21T03:35:00.495Z,76.00
2022-08-21T03:36:06.709Z,76.50
2022-08-21T03:37:08.915Z,76.67
2022-08-21T03:38:11.379Z,77.10
2022-08-21T03:39:12.863Z,77.24
2022-08-21T03:40:17.060Z,77.43
2022-08-21T03:41:18.665Z,77.57
2022-08-21T03:42:20.563Z,77.98
2022-08-21T03:43:22.120Z,78.11
2022-08-21T03:44:23.638Z,78.66
2022-08-21T03:45:26.071Z,78.75
2022-08-21T03:46:27.673Z,79.47
2022-08-21T03:47:29.227Z,79.63
2022-08-21T03:48:34.411Z,79.78
2022-08-21T03:49:36.903Z,80.52
2022-08-21T03:50:42.163Z,80.78
2022-08-21T03:51:43.734Z,80.81
2022-08-21T03:52:45.461Z,81.78
2022-08-21T03:53:46.970Z,81.86
2022-08-21T03:54:48.604Z,82.17
2022-08-21T03:55:52.313Z,82.29
2022-08-21T03:56:53.828Z,81.96
2022-08-21T03:57:55.528Z,82.39
2022-08-21T03:58:57.336Z,82.63
2022-08-21T03:59:58.843Z,83.48
2022-08-21T04:01:01.751Z,84.21
2022-08-21T04:02:05.810Z,84.35
2022-08-21T04:03:07.320Z,84.55
2022-08-21T04:04:08.824Z,84.56
2022-08-21T04:05:12.135Z,84.67
2022-08-21T04:06:13.681Z,84.91
2022-08-21T04:07:15.166Z,84.71
2022-08-21T04:08:18.383Z,84.92
2022-08-21T04:09:20.089Z,84.69
2022-08-21T04:10:21.692Z,84.87
2022-08-21T04:11:23.290Z,85.60
2022-08-21T04:12:24.855Z,85.74
2022-08-21T04:13:26.461Z,85.34
2022-08-21T04:14:27.926Z,85.49
2022-08-21T04:15:29.431Z,86.00
2022-08-21T04:16:31.610Z,85.78
2022-08-21T04:17:33.119Z,85.81
2022-08-21T04:18:34.714Z,85.37
2022-08-21T04:19:36.241Z,85.63
2022-08-21T04:20:38.222Z,85.65
2022-08-21T04:21:41.265Z,85.58
2022-08-21T04:22:46.077Z,85.46
2022-08-21T04:23:47.629Z,85.74
2022-08-21T04:24:49.168Z,85.50
2022-08-21T04:25:51.587Z,86.05
2022-08-21T04:26:53.061Z,86.16
2022-08-21T04:27:54.788Z,86.26
2022-08-21T04:28:56.270Z,86.42
2022-08-21T04:29:57.810Z,86.28
2022-08-21T04:30:59.318Z,85.66
2022-08-21T04:32:00.847Z,86.23
2022-08-21T04:33:02.468Z,86.48
2022-08-21T04:34:05.715Z,86.76
2022-08-21T04:35:14.152Z,86.78
2022-08-21T04:36:15.644Z,86.35
2022-08-21T04:37:17.202Z,86.45
2022-08-21T04:38:19.110Z,86.78
2022-08-21T04:39:20.651Z,86.58
2022-08-21T04:40:28.739Z,86.39
2022-08-21T04:41:30.292Z,85.93
2022-08-21T04:42:31.983Z,86.25
2022-08-21T04:43:33.966Z,86.16
2022-08-21T04:44:35.741Z,86.11
2022-08-21T04:45:41.936Z,86.01
2022-08-21T04:46:43.409Z,85.96
2022-08-21T04:47:53.151Z,86.28
2022-08-21T04:48:55.030Z,86.66
2022-08-21T04:49:56.536Z,86.22
2022-08-21T04:51:07.840Z,86.18
2022-08-21T04:52:09.889Z,85.61
2022-08-21T04:53:16.869Z,85.58
2022-08-21T04:54:21.247Z,85.38
2022-08-21T04:55:24.682Z,85.13
2022-08-21T04:56:32.704Z,85.66
2022-08-21T04:57:48.372Z,85.16
2022-08-21T04:58:51.977Z,84.81
2022-08-21T04:59:53.763Z,84.77
2022-08-21T05:00:58.678Z,84.31
2022-08-21T05:02:01.653Z,83.98
2022-08-21T05:03:05.513Z,83.93
2022-08-21T05:04:11.197Z,84.26
2022-08-21T05:05:12.744Z,84.18
2022-08-21T05:06:16.492Z,83.65
2022-08-21T05:07:41.961Z,83.49
2022-08-21T05:08:47.989Z,83.75
2022-08-21T05:09:50.145Z,83.89
2022-08-21T05:10:53.448Z,84.00
2022-08-21T05:11:57.215Z,83.96
2022-08-21T05:12:59.863Z,83.50
2022-08-21T05:14:01.538Z,84.07
2022-08-21T05:15:04.497Z,83.34
2022-08-21T05:16:06.269Z,83.27
2022-08-21T05:17:07.777Z,83.11
2022-08-21T05:18:09.750Z,83.00
2022-08-21T05:19:11.520Z,82.54
2022-08-21T05:20:14.984Z,82.05
2022-08-21T05:21:16.635Z,81.96
2022-08-21T05:22:22.689Z,81.95
2022-08-21T05:23:24.189Z,81.66
2022-08-21T05:24:25.662Z,81.25
2022-08-21T05:25:28.186Z,81.08
2022-08-21T05:26:29.994Z,80.42
2022-08-21T05:27:31.654Z,80.06
2022-08-21T05:28:33.937Z,79.83
2022-08-21T05:29:35.430Z,79.12
2022-08-21T05:30:38.224Z,78.58
2022-08-21T05:31:39.824Z,78.03
2022-08-21T05:32:41.309Z,77.83
2022-08-21T05:33:43.978Z,77.57
2022-08-21T05:34:45.619Z,76.80
2022-08-21T05:35:51.949Z,76.62
2022-08-21T05:36:53.409Z,76.59
2022-08-21T05:37:55.339Z,76.66
2022-08-21T05:38:57.188Z,76.58
2022-08-21T05:40:11.800Z,76.43
2022-08-21T05:41:21.999Z,76.41
2022-08-21T05:42:23.638Z,76.66
2022-08-21T05:43:25.216Z,76.35
2022-08-21T05:44:26.729Z,76.10
2022-08-21T05:45:42.753Z,75.84
2022-08-21T05:46:45.158Z,75.58
2022-08-21T05:47:46.674Z,75.50
2022-08-21T05:48:48.303Z,75.41
2022-08-21T05:49:49.866Z,74.92
2022-08-21T05:50:53.061Z,74.31
2022-08-21T05:51:54.604Z,74.56
2022-08-21T05:52:56.650Z,74.70
2022-08-21T05:54:08.680Z,74.77
2022-08-21T05:55:10.187Z,74.02
2022-08-21T05:56:13.692Z,74.35
2022-08-21T05:57:15.363Z,74.66
2022-08-21T05:58:19.165Z,74.58
2022-08-21T05:59:20.841Z,74.08
2022-08-21T06:00:22.356Z,73.91
2022-08-21T06:01:23.872Z,74.31
2022-08-21T06:02:25.467Z,74.54
2022-08-21T06:03:34.469Z,74.69
2022-08-21T06:04:39.837Z,74.62
2022-08-21T06:05:41.433Z,74.66
2022-08-21T06:06:43.067Z,74.73
2022-08-21T06:07:44.583Z,74.57
2022-08-21T06:08:46.100Z,74.87
2022-08-21T06:09:47.576Z,74.91
2022-08-21T06:10:51.438Z,74.84
2022-08-21T06:11:52.961Z,73.93
2022-08-21T06:12:55.021Z,73.62
2022-08-21T06:13:56.924Z,73.19
2022-08-21T06:14:58.443Z,73.74
2022-08-21T06:16:04.683Z,73.38
2022-08-21T06:17:13.136Z,73.71
2022-08-21T06:18:15.138Z,72.72
2022-08-21T06:19:16.751Z,72.79
2022-08-21T06:20:18.259Z,72.31
2022-08-21T06:21:20.006Z,71.84
2022-08-21T06:22:21.992Z,71.69
2022-08-21T06:23:23.529Z,70.72
2022-08-21T06:24:35.210Z,69.85
2022-08-21T06:25:36.919Z,68.85
2022-08-21T06:26:38.415Z,68.81
2022-08-21T06:27:39.972Z,67.65
2022-08-21T06:28:43.123Z,67.11
2022-08-21T06:29:44.952Z,65.62
2022-08-21T06:30:46.581Z,65.62
2022-08-21T06:31:49.670Z,63.96
2022-08-21T06:32:51.144Z,62.33
2022-08-21T06:33:53.215Z,60.61
2022-08-21T06:34:54.721Z,58.19
2022-08-21T06:35:56.249Z,56.79
2022-08-21T06:36:57.747Z,54.00
2022-08-21T06:38:00.034Z,53.15
2022-08-21T06:39:02.065Z,51.90
2022-08-21T06:40:17.997Z,49.65
2022-08-21T06:41:24.231Z,46.70
2022-08-21T06:42:28.198Z,45.50
2022-08-21T06:43:39.264Z,44.39
2022-08-21T06:44:41.743Z,42.07
2022-08-21T06:45:43.985Z,39.71
2022-08-21T06:46:46.537Z,38.99
2022-08-21T06:47:49.812Z,37.94
2022-08-21T06:48:51.452Z,37.13
2022-08-21T06:49:53.066Z,36.02
2022-08-21T06:50:54.899Z,35.61
2022-08-21T06:51:56.478Z,34.31
2022-08-21T06:53:07.294Z,33.28
2022-08-21T06:54:08.994Z,32.94
2022-08-21T06:55:11.093Z,32.09
2022-08-21T06:56:13.590Z,32.28
2022-08-21T06:57:15.160Z,32.06
2022-08-21T06:58:17.488Z,30.78
2022-08-21T06:59:18.999Z,31.72
2022-08-21T07:00:20.982Z,30.47
2022-08-21T07:01:24.971Z,29.92
2022-08-21T07:02:26.974Z,30.43
2022-08-21T07:03:35.235Z,30.51
2022-08-21T07:04:36.746Z,30.04
2022-08-21T07:05:38.433Z,29.88
2022-08-21T07:06:39.965Z,29.95
2022-08-21T07:07:41.542Z,29.84
2022-08-21T07:08:43.015Z,29.19
2022-08-21T07:09:44.715Z,30.06
2022-08-21T07:10:47.464Z,29.05
2022-08-21T07:11:52.946Z,29.49
2022-08-21T07:13:01.245Z,28.10
2022-08-21T07:14:03.217Z,28.70
2022-08-21T07:15:05.336Z,28.22
2022-08-21T07:16:07.418Z,27.79
2022-08-21T07:17:08.961Z,27.86
2022-08-21T07:18:10.472Z,27.90
2022-08-21T07:19:11.992Z,28.52
2022-08-21T07:20:13.654Z,29.67
2022-08-21T07:21:16.794Z,30.80
2022-08-21T07:22:21.298Z,33.78
2022-08-21T07:23:34.681Z,34.10
2022-08-21T07:24:36.185Z,34.88
2022-08-21T07:25:37.903Z,35.89
2022-08-21T07:26:41.107Z,37.54
2022-08-21T07:27:42.625Z,38.97
2022-08-21T07:28:44.369Z,40.29
2022-08-21T07:29:45.978Z,40.47
2022-08-21T07:30:52.539Z,40.56
2022-08-21T07:31:54.041Z,41.73
2022-08-21T07:32:56.177Z,41.78
2022-08-21T07:33:57.890Z,42.84
2022-08-21T07:34:59.512Z,43.31
2022-08-21T07:36:01.121Z,43.53
2022-08-21T07:37:06.170Z,43.81
2022-08-21T07:38:11.485Z,44.67
2022-08-21T07:39:12.907Z,46.45
2022-08-21T07:40:14.862Z,45.68
2022-08-21T07:41:17.700Z,46.04
2022-08-21T07:42:19.070Z,47.17
2022-08-21T07:43:20.961Z,46.69
2022-08-21T07:44:22.342Z,46.67
2022-08-21T07:45:23.810Z,47.19
2022-08-21T07:46:25.911Z,47.61
2022-08-21T07:47:41.535Z,47.50
2022-08-21T07:48:44.026Z,47.20
2022-08-21T07:49:45.480Z,46.93
2022-08-21T07:50:46.976Z,47.20
2022-08-21T07:51:48.372Z,47.50
2022-08-21T07:52:49.764Z,47.45
2022-08-21T07:53:51.969Z,46.13
2022-08-21T07:54:54.103Z,46.27
2022-08-21T07:55:57.998Z,46.83
2022-08-21T07:56:59.429Z,47.05
2022-08-21T07:58:00.817Z,47.36
2022-08-21T07:59:02.260Z,47.99
2022-08-21T08:00:11.831Z,48.17
2022-08-21T08:01:16.040Z,47.76
2022-08-21T08:02:27.825Z,47.52
2022-08-21T08:03:29.487Z,47.85
2022-08-21T08:04:31.000Z,48.04
2022-08-21T08:05:33.071Z,48.52
2022-08-21T08:06:34.515Z,48.50
2022-08-21T08:07:36.488Z,48.88
2022-08-21T08:08:37.901Z,49.09
2022-08-21T08:09:39.412Z,49.09
2022-08-21T08:10:40.789Z,49.71
2022-08-21T08:11:43.144Z,49.99
2022-08-21T08:12:44.796Z,51.13
2022-08-21T08:13:48.303Z,50.61
2022-08-21T08:14:49.757Z,50.55
2022-08-21T08:15:51.618Z,50.41
2022-08-21T08:16:53.049Z,50.39
2022-08-21T08:17:54.986Z,50.47
2022-08-21T08:18:56.417Z,51.01
2022-08-21T08:19:57.922Z,50.40
2022-08-21T08:20:59.371Z,51.26
2022-08-21T08:22:00.826Z,50.42
2022-08-21T08:23:02.523Z,50.10
2022-08-21T08:24:19.503Z,49.56
2022-08-21T08:25:21.938Z,49.55
2022-08-21T08:26:23.334Z,50.13
2022-08-21T08:27:24.768Z,49.76
2022-08-21T08:28:26.283Z,49.54
2022-08-21T08:29:27.689Z,50.43
2022-08-21T08:30:33.176Z,50.95
2022-08-21T08:31:34.713Z,51.07
2022-08-21T08:32:36.215Z,51.21
2022-08-21T08:33:37.625Z,50.67
2022-08-21T08:34:39.561Z,50.54
2022-08-21T08:35:42.099Z,50.83
2022-08-21T08:36:43.675Z,51.02
2022-08-21T08:37:45.172Z,50.50
2022-08-21T08:38:49.364Z,50.16
2022-08-21T08:39:50.847Z,50.18
2022-08-21T08:41:02.075Z,49.98
2022-08-21T08:42:33.843Z,50.40
2022-08-21T08:43:34.294Z,50.89
2022-08-21T08:44:36.041Z,50.90
2022-08-21T08:45:39.589Z,50.31
2022-08-21T08:46:47.299Z,49.83
2022-08-21T08:47:50.730Z,49.46
2022-08-21T08:48:54.394Z,50.15
2022-08-21T08:49:56.522Z,50.16
2022-08-21T08:50:58.306Z,50.00
2022-08-21T08:52:04.396Z,49.91
2022-08-21T08:53:07.266Z,49.54
2022-08-21T08:54:10.621Z,49.67
2022-08-21T08:55:16.434Z,49.09
2022-08-21T08:56:19.714Z,49.34
2022-08-21T08:57:23.394Z,49.30
2022-08-21T08:58:29.221Z,49.40
2022-08-21T08:59:40.413Z,48.73
2022-08-21T09:00:42.261Z,48.54
2022-08-21T09:01:43.780Z,48.51
2022-08-21T09:02:46.804Z,48.03
2022-08-21T09:03:49.893Z,47.84
2022-08-21T09:04:52.198Z,48.56
2022-08-21T09:06:10.361Z,47.76
2022-08-21T09:07:17.210Z,49.24
2022-08-21T09:08:28.778Z,48.55
2022-08-21T09:09:49.432Z,48.39
2022-08-21T09:11:29.337Z,48.46
2022-08-21T09:12:49.349Z,48.67
2022-08-21T09:13:59.902Z,49.15
2022-08-21T09:15:13.173Z,49.24
2022-08-21T09:16:33.245Z,48.13
2022-08-21T09:17:42.463Z,48.11
2022-08-21T09:18:57.714Z,47.30
2022-08-21T09:20:14.521Z,47.72
2022-08-21T09:21:42.203Z,47.66
2022-08-21T09:22:43.610Z,46.86
2022-08-21T09:23:44.957Z,46.49
2022-08-21T09:25:11.794Z,47.01
2022-08-21T09:26:14.926Z,46.53
2022-08-21T09:27:18.324Z,46.39
2022-08-21T09:28:19.758Z,45.80
2022-08-21T09:29:24.251Z,46.55
2022-08-21T09:30:31.009Z,46.77
2022-08-21T09:31:34.710Z,45.70
2022-08-21T09:32:38.208Z,46.23
2022-08-21T09:33:39.752Z,45.48
2022-08-21T09:34:41.355Z,45.70
2022-08-21T09:35:51.641Z,45.01
2022-08-21T09:36:53.026Z,45.13
2022-08-21T09:37:54.464Z,45.70
2022-08-21T09:38:56.015Z,45.93
2022-08-21T09:39:58.319Z,45.51
2022-08-21T09:41:04.650Z,45.26
2022-08-21T09:42:07.424Z,45.22
2022-08-21T09:43:11.698Z,45.62
2022-08-21T09:44:13.068Z,44.41
2022-08-21T09:45:17.122Z,44.58
2022-08-21T09:46:23.211Z,45.14
2022-08-21T09:47:27.057Z,44.79
2022-08-21T09:48:33.021Z,44.83
2022-08-21T09:49:36.053Z,45.87
2022-08-21T09:50:37.465Z,45.61
2022-08-21T09:51:38.900Z,45.81
2022-08-21T09:52:45.635Z,45.51
2022-08-21T09:53:53.950Z,44.74
2022-08-21T09:54:56.364Z,44.35
2022-08-21T09:56:00.117Z,43.91
2022-08-21T09:57:12.978Z,43.06
2022-08-21T09:58:14.927Z,43.16
2022-08-21T09:59:21.375Z,42.78
2022-08-21T10:00:22.726Z,43.34
2022-08-21T10:01:25.716Z,43.40
2022-08-21T10:02:27.161Z,43.86
2022-08-21T10:03:28.567Z,42.92
2022-08-21T10:04:32.161Z,44.56
2022-08-21T10:05:33.600Z,43.76
2022-08-21T10:06:35.161Z,43.22
2022-08-21T10:07:38.593Z,43.80
2022-08-21T10:08:41.745Z,43.47
2022-08-21T10:09:43.202Z,43.22
2022-08-21T10:10:44.735Z,43.13
2022-08-21T10:11:57.881Z,43.20
2022-08-21T10:13:09.079Z,44.32
2022-08-21T10:14:13.443Z,43.35
2022-08-21T10:15:14.841Z,43.88
2022-08-21T10:16:16.227Z,43.52
2022-08-21T10:17:38.531Z,43.39
2022-08-21T10:18:41.939Z,43.02
2022-08-21T10:19:54.995Z,43.07
2022-08-21T10:21:02.219Z,42.76
2022-08-21T10:22:15.818Z,42.58
2022-08-21T10:23:27.802Z,42.53
2022-08-21T10:24:41.143Z,42.82
2022-08-21T10:25:50.291Z,42.04
2022-08-21T10:26:58.159Z,42.29
2022-08-21T10:27:59.544Z,43.09
2022-08-21T10:29:03.675Z,42.91
2022-08-21T10:30:12.263Z,42.74
2022-08-21T10:31:21.798Z,42.92
2022-08-21T10:32:28.813Z,42.35
2022-08-21T10:33:33.221Z,42.92
2022-08-21T10:34:49.711Z,42.78
2022-08-21T10:36:29.616Z,42.36
2022-08-21T10:37:44.518Z,40.47
2022-08-21T10:39:17.799Z,40.44
2022-08-21T10:40:25.386Z,40.47
2022-08-21T10:41:45.601Z,41.08
2022-08-21T10:43:05.035Z,41.25
2022-08-21T10:44:31.004Z,40.38
2022-08-21T10:45:39.663Z,40.63
2022-08-21T10:46:55.418Z,40.31
2022-08-21T10:48:00.118Z,38.86
2022-08-21T10:49:18.343Z,39.11
2022-08-21T10:50:19.715Z,38.70
2022-08-21T10:51:33.239Z,39.41
2022-08-21T10:52:46.702Z,40.38
2022-08-21T10:53:56.767Z,39.77
2022-08-21T10:55:10.812Z,40.57
2022-08-21T10:56:26.105Z,41.34
2022-08-21T10:57:39.516Z,39.57
2022-08-21T10:58:59.198Z,38.88
2022-08-21T11:00:09.510Z,38.70
2022-08-21T11:01:12.984Z,39.02
2022-08-21T11:02:28.350Z,38.69
2022-08-21T11:03:44.279Z,38.91
2022-08-21T11:04:51.497Z,38.55
2022-08-21T11:05:54.202Z,38.80
2022-08-21T11:07:01.473Z,38.90
2022-08-21T11:08:10.380Z,38.81
2022-08-21T11:09:14.396Z,38.87
2022-08-21T11:10:22.357Z,38.73
2022-08-21T11:11:35.903Z,38.51
2022-08-21T11:12:55.851Z,39.23
2022-08-21T11:14:03.914Z,39.14
2022-08-21T11:15:05.442Z,38.50
2022-08-21T11:16:06.994Z,38.64
2022-08-21T11:17:12.123Z,38.75
2022-08-21T11:18:29.242Z,38.25
2022-08-21T11:19:43.542Z,38.32
2022-08-21T11:20:52.406Z,37.97
2022-08-21T11:22:15.447Z,38.67
2022-08-21T11:23:30.243Z,38.39
2022-08-21T11:24:47.828Z,38.49
2022-08-21T11:26:03.356Z,37.85
2022-08-21T11:27:19.397Z,37.43
2022-08-21T11:28:25.461Z,36.72
2022-08-21T11:29:29.898Z,36.74
2022-08-21T11:30:38.131Z,36.31
2022-08-21T11:32:05.676Z,36.07
2022-08-21T11:33:07.087Z,36.37
2022-08-21T11:34:26.877Z,36.67
2022-08-21T11:35:31.369Z,36.89
2022-08-21T11:36:35.889Z,36.97
2022-08-21T11:37:49.377Z,35.83
2022-08-21T11:38:57.070Z,35.45
2022-08-21T11:40:05.048Z,33.91
2022-08-21T11:41:12.454Z,34.30
2022-08-21T11:42:24.972Z,34.29
2022-08-21T11:43:32.456Z,34.52
2022-08-21T11:44:39.806Z,34.60
2022-08-21T11:45:51.311Z,34.62
2022-08-21T11:46:58.525Z,35.47
2022-08-21T11:48:18.217Z,35.43
2022-08-21T11:49:29.913Z,34.41
2022-08-21T11:50:35.299Z,35.16
2022-08-21T11:51:41.749Z,36.84
2022-08-21T11:52:49.919Z,35.37
2022-08-21T11:53:58.534Z,35.67
2022-08-21T11:55:02.794Z,34.81
2022-08-21T11:56:11.751Z,35.80
2022-08-21T11:57:13.183Z,35.90
2022-08-21T11:58:21.528Z,36.29
2022-08-21T11:59:49.258Z,35.40
2022-08-21T12:00:52.945Z,34.92
2022-08-21T12:01:54.846Z,34.29
2022-08-21T12:02:59.411Z,34.12
2022-08-21T12:04:02.924Z,33.95
2022-08-21T12:05:12.150Z,33.78
2022-08-21T12:06:14.525Z,33.88
2022-08-21T12:07:31.412Z,33.94
2022-08-21T12:08:34.896Z,34.55
2022-08-21T12:09:36.496Z,33.82
2022-08-21T12:10:39.892Z,33.77
2022-08-21T12:11:49.047Z,34.07
2022-08-21T12:12:51.351Z,34.09
2022-08-21T12:14:01.920Z,35.08
2022-08-21T12:15:21.660Z,34.58
2022-08-21T12:16:36.646Z,33.73
2022-08-21T12:17:39.990Z,31.94
2022-08-21T12:18:42.054Z,32.58
2022-08-21T12:19:43.528Z,32.11
2022-08-21T12:20:57.218Z,32.81
2022-08-21T12:21:58.635Z,29.66
2022-08-21T12:23:12.833Z,29.25
2022-08-21T12:24:14.616Z,30.37
2022-08-21T12:25:21.676Z,31.03
2022-08-21T12:26:25.281Z,31.18
2022-08-21T12:27:30.989Z,33.62
2022-08-21T12:28:32.637Z,31.24
2022-08-21T12:29:36.860Z,30.37
2022-08-21T12:30:40.006Z,30.37
2022-08-21T12:31:53.386Z,31.73
2022-08-21T12:32:57.060Z,31.09
2022-08-21T12:34:02.771Z,30.96
2022-08-21T12:35:24.283Z,31.23
2022-08-21T12:36:33.136Z,31.63
2022-08-21T12:37:41.899Z,31.38
2022-08-21T12:38:56.062Z,31.05
2022-08-21T12:39:59.949Z,30.55
2022-08-21T12:41:06.663Z,30.65
2022-08-21T12:42:19.426Z,31.06
2022-08-21T12:43:23.445Z,31.70
2022-08-21T12:44:43.570Z,31.28
2022-08-21T12:45:46.342Z,31.52
2022-08-21T12:46:58.792Z,31.45
2022-08-21T12:48:02.722Z,30.70
2022-08-21T12:49:09.001Z,31.33
2022-08-21T12:50:13.212Z,31.90
2022-08-21T12:51:22.751Z,31.30
2022-08-21T12:52:25.959Z,30.99
2022-08-21T12:53:27.401Z,30.68
2022-08-21T12:54:30.173Z,30.74
2022-08-21T12:55:33.111Z,30.91
2022-08-21T12:56:35.014Z,30.55
2022-08-21T12:57:37.071Z,30.54
2022-08-21T12:58:41.348Z,31.43
2022-08-21T12:59:42.787Z,30.53
2022-08-21T13:00:49.565Z,30.08
2022-08-21T13:01:52.848Z,30.23
2022-08-21T13:02:55.582Z,30.47
2022-08-21T13:04:04.644Z,30.88
2022-08-21T13:05:08.526Z,31.07
2022-08-21T13:06:14.657Z,30.72
2022-08-21T13:07:27.862Z,31.15
2022-08-21T13:08:29.322Z,30.43
2022-08-21T13:09:31.943Z,30.51
2022-08-21T13:10:35.043Z,30.73
2022-08-21T13:11:36.518Z,30.88
2022-08-21T13:12:42.487Z,29.81
2022-08-21T13:13:47.048Z,30.37
2022-08-21T13:14:53.063Z,29.76
2022-08-21T13:16:02.757Z,30.17
2022-08-21T13:17:06.000Z,29.81
2022-08-21T13:18:07.822Z,30.13
2022-08-21T13:19:12.415Z,30.36
2022-08-21T13:20:21.782Z,31.21
2022-08-21T13:21:27.616Z,30.38
2022-08-21T13:22:33.321Z,30.66
2022-08-21T13:23:36.175Z,29.67
2022-08-21T13:24:42.786Z,29.40
2022-08-21T13:25:44.842Z,29.83
2022-08-21T13:26:46.622Z,29.13
2022-08-21T13:28:08.654Z,29.76
2022-08-21T13:29:10.850Z,28.94
2022-08-21T13:30:22.094Z,28.03
2022-08-21T13:31:27.719Z,28.65
2022-08-21T13:32:31.435Z,28.50
2022-08-21T13:33:36.229Z,28.64
2022-08-21T13:34:39.475Z,29.04
2022-08-21T13:35:46.861Z,29.20
2022-08-21T13:36:48.362Z,29.62
2022-08-21T13:37:51.007Z,29.47
2022-08-21T13:38:53.360Z,31.22
2022-08-21T13:39:55.021Z,31.24
2022-08-21T13:41:02.764Z,30.14
2022-08-21T13:42:05.986Z,29.02
2022-08-21T13:43:13.063Z,29.62
2022-08-21T13:44:18.332Z,29.17
2022-08-21T13:45:31.346Z,29.90
2022-08-21T13:46:34.554Z,30.08
2022-08-21T13:47:35.934Z,29.10
2022-08-21T13:48:38.351Z,28.75
2022-08-21T13:49:58.466Z,29.24
2022-08-21T13:51:01.474Z,28.93
2022-08-21T13:52:03.489Z,29.29
2022-08-21T13:53:06.807Z,28.78
2022-08-21T13:54:16.955Z,28.47